sensor_id;sensor_type;location;lat;lon;timestamp;temperature;humidity
27376;DHT22;14844;51.302;6.354;2022-12-20T00:01:51;11.80;99.90
27376;DHT22;14844;51.302;6.354;2022-12-20T00:04:16;11.80;99.90
27376;DHT22;14844;51.302;6.354;2022-12-20T00:06:42;11.80;99.90
27376;DHT22;14844;51.302;6.354;2022-12-20T00:09:08;11.80;99.90
27376;DHT22;14844;51.302;6.354;2022-12-20T00:11:35;11.80;99.90
27376;DHT22;14844;51.302;6.354;2022-12-20T00:14:02;11.80;99.90
27376;DHT22;14844;51.302;6.354;2022-12-20T00:16:28;11.80;99.90
27376;DHT22;14844;51.302;6.354;2022-12-20T00:18:57;11.80;99.90
27376;DHT22;14844;51.302;6.354;2022-12-20T00:21:23;11.80;99.90
27376;DHT22;14844;51.302;6.354;2022-12-20T00:23:50;11.80;99.90
27376;DHT22;14844;51.302;6.354;2022-12-20T00:26:19;11.80;99.90
27376;DHT22;14844;51.302;6.354;2022-12-20T00:28:45;11.90;99.90
27376;DHT22;14844;51.302;6.354;2022-12-20T00:31:15;11.90;99.90
27376;DHT22;14844;51.302;6.354;2022-12-20T00:33:44;11.90;99.90
27376;DHT22;14844;51.302;6.354;2022-12-20T00:36:10;11.90;99.90
27376;DHT22;14844;51.302;6.354;2022-12-20T00:38:36;11.80;99.90
27376;DHT22;14844;51.302;6.354;2022-12-20T00:41:07;11.80;99.90
27376;DHT22;14844;51.302;6.354;2022-12-20T00:43:33;11.90;99.90
27376;DHT22;14844;51.302;6.354;2022-12-20T00:46:00;11.90;99.90
27376;DHT22;14844;51.302;6.354;2022-12-20T00:48:27;12.00;99.90
27376;DHT22;14844;51.302;6.354;2022-12-20T00:50:57;12.10;99.90
27376;DHT22;14844;51.302;6.354;2022-12-20T00:53:23;12.10;99.90
27376;DHT22;14844;51.302;6.354;2022-12-20T00:55:49;12.20;99.90
27376;DHT22;14844;51.302;6.354;2022-12-20T00:58:14;12.20;99.90
27376;DHT22;14844;51.302;6.354;2022-12-20T01:00:40;12.20;99.90
27376;DHT22;14844;51.302;6.354;2022-12-20T01:03:06;12.20;99.90
27376;DHT22;14844;51.302;6.354;2022-12-20T01:05:32;12.20;99.90
27376;DHT22;14844;51.302;6.354;2022-12-20T01:07:58;12.10;99.90
27376;DHT22;14844;51.302;6.354;2022-12-20T01:10:24;12.10;99.90
27376;DHT22;14844;51.302;6.354;2022-12-20T01:12:50;12.10;99.90
27376;DHT22;14844;51.302;6.354;2022-12-20T01:15:15;12.00;99.90
27376;DHT22;14844;51.302;6.354;2022-12-20T01:17:41;12.00;99.90
27376;DHT22;14844;51.302;6.354;2022-12-20T01:20:07;12.00;99.90
27376;DHT22;14844;51.302;6.354;2022-12-20T01:22:33;12.00;99.90
27376;DHT22;14844;51.302;6.354;2022-12-20T01:24:58;12.00;99.90
27376;DHT22;14844;51.302;6.354;2022-12-20T01:27:24;11.90;99.90
27376;DHT22;14844;51.302;6.354;2022-12-20T01:29:50;12.00;99.90
27376;DHT22;14844;51.302;6.354;2022-12-20T01:32:15;12.00;99.90
27376;DHT22;14844;51.302;6.354;2022-12-20T01:34:41;12.00;99.90
27376;DHT22;14844;51.302;6.354;2022-12-20T01:37:07;12.10;99.90
27376;DHT22;14844;51.302;6.354;2022-12-20T01:39:32;12.00;99.90
27376;DHT22;14844;51.302;6.354;2022-12-20T01:41:58;12.00;99.90
27376;DHT22;14844;51.302;6.354;2022-12-20T01:46:49;12.10;99.90
27376;DHT22;14844;51.302;6.354;2022-12-20T01:51:56;12.10;99.90
27376;DHT22;14844;51.302;6.354;2022-12-20T01:54:25;12.10;99.90
27376;DHT22;14844;51.302;6.354;2022-12-20T01:57:02;12.10;99.90
27376;DHT22;14844;51.302;6.354;2022-12-20T01:59:28;12.00;99.90
27376;DHT22;14844;51.302;6.354;2022-12-20T02:01:58;12.00;99.90
27376;DHT22;14844;51.302;6.354;2022-12-20T02:04:25;12.10;99.90
27376;DHT22;14844;51.302;6.354;2022-12-20T02:06:51;12.00;99.90
27376;DHT22;14844;51.302;6.354;2022-12-20T02:09:16;12.00;99.90
27376;DHT22;14844;51.302;6.354;2022-12-20T02:11:48;12.00;99.90
27376;DHT22;14844;51.302;6.354;2022-12-20T02:14:53;11.90;99.90
27376;DHT22;14844;51.302;6.354;2022-12-20T02:23:03;11.90;99.90
27376;DHT22;14844;51.302;6.354;2022-12-20T02:25:45;11.80;99.90
27376;DHT22;14844;51.302;6.354;2022-12-20T02:31:18;11.80;99.90
27376;DHT22;14844;51.302;6.354;2022-12-20T02:33:46;11.80;99.90
27376;DHT22;14844;51.302;6.354;2022-12-20T02:36:17;11.70;99.90
27376;DHT22;14844;51.302;6.354;2022-12-20T02:38:43;11.70;99.90
27376;DHT22;14844;51.302;6.354;2022-12-20T02:41:22;11.60;99.90
27376;DHT22;14844;51.302;6.354;2022-12-20T02:43:58;11.50;99.90
27376;DHT22;14844;51.302;6.354;2022-12-20T02:46:44;11.40;99.90
27376;DHT22;14844;51.302;6.354;2022-12-20T02:49:16;11.30;99.90
27376;DHT22;14844;51.302;6.354;2022-12-20T02:51:45;11.30;99.90
27376;DHT22;14844;51.302;6.354;2022-12-20T02:54:12;11.30;99.90
27376;DHT22;14844;51.302;6.354;2022-12-20T02:57:19;11.30;99.90
27376;DHT22;14844;51.302;6.354;2022-12-20T03:02:15;11.30;99.90
27376;DHT22;14844;51.302;6.354;2022-12-20T03:04:42;11.30;99.90
27376;DHT22;14844;51.302;6.354;2022-12-20T03:07:12;11.30;99.90
27376;DHT22;14844;51.302;6.354;2022-12-20T03:09:39;11.30;99.90
27376;DHT22;14844;51.302;6.354;2022-12-20T03:12:06;11.30;99.90
27376;DHT22;14844;51.302;6.354;2022-12-20T03:14:33;11.30;99.90
27376;DHT22;14844;51.302;6.354;2022-12-20T03:16:58;11.40;99.90
27376;DHT22;14844;51.302;6.354;2022-12-20T03:19:24;11.40;99.90
27376;DHT22;14844;51.302;6.354;2022-12-20T03:21:50;11.40;99.90
27376;DHT22;14844;51.302;6.354;2022-12-20T03:24:16;11.40;99.90
27376;DHT22;14844;51.302;6.354;2022-12-20T03:26:42;11.40;99.90
27376;DHT22;14844;51.302;6.354;2022-12-20T03:29:08;11.50;99.90
27376;DHT22;14844;51.302;6.354;2022-12-20T03:31:33;11.40;99.90
27376;DHT22;14844;51.302;6.354;2022-12-20T03:33:59;11.40;99.90
27376;DHT22;14844;51.302;6.354;2022-12-20T03:36:25;11.40;99.90
27376;DHT22;14844;51.302;6.354;2022-12-20T03:38:51;11.40;99.90
27376;DHT22;14844;51.302;6.354;2022-12-20T03:41:17;11.40;99.90
27376;DHT22;14844;51.302;6.354;2022-12-20T03:43:43;11.40;99.90
27376;DHT22;14844;51.302;6.354;2022-12-20T03:46:09;11.40;99.90
27376;DHT22;14844;51.302;6.354;2022-12-20T03:48:34;11.40;99.90
27376;DHT22;14844;51.302;6.354;2022-12-20T03:51:00;11.30;99.90
27376;DHT22;14844;51.302;6.354;2022-12-20T03:53:25;11.30;99.90
27376;DHT22;14844;51.302;6.354;2022-12-20T03:55:51;11.20;99.90
27376;DHT22;14844;51.302;6.354;2022-12-20T03:58:16;11.20;99.90
27376;DHT22;14844;51.302;6.354;2022-12-20T04:00:42;11.10;99.90
27376;DHT22;14844;51.302;6.354;2022-12-20T04:03:08;11.00;99.90
27376;DHT22;14844;51.302;6.354;2022-12-20T04:05:33;11.00;99.90
27376;DHT22;14844;51.302;6.354;2022-12-20T04:07:59;11.00;99.90
27376;DHT22;14844;51.302;6.354;2022-12-20T04:10:24;11.10;99.90
27376;DHT22;14844;51.302;6.354;2022-12-20T04:12:50;11.00;99.90
27376;DHT22;14844;51.302;6.354;2022-12-20T04:15:15;11.00;99.90
27376;DHT22;14844;51.302;6.354;2022-12-20T04:17:41;11.00;99.90
27376;DHT22;14844;51.302;6.354;2022-12-20T04:20:09;11.00;99.90
27376;DHT22;14844;51.302;6.354;2022-12-20T04:22:50;10.90;99.90
27376;DHT22;14844;51.302;6.354;2022-12-20T04:25:19;10.90;99.90
27376;DHT22;14844;51.302;6.354;2022-12-20T04:27:44;10.90;99.90
27376;DHT22;14844;51.302;6.354;2022-12-20T04:30:11;10.80;99.90
27376;DHT22;14844;51.302;6.354;2022-12-20T04:32:37;10.80;99.90
27376;DHT22;14844;51.302;6.354;2022-12-20T04:35:03;10.80;99.90
27376;DHT22;14844;51.302;6.354;2022-12-20T04:37:30;10.70;99.90
27376;DHT22;14844;51.302;6.354;2022-12-20T04:39:55;10.80;99.90
27376;DHT22;14844;51.302;6.354;2022-12-20T04:42:22;10.70;99.90
27376;DHT22;14844;51.302;6.354;2022-12-20T04:44:48;10.70;99.90
27376;DHT22;14844;51.302;6.354;2022-12-20T04:47:14;10.70;99.90
27376;DHT22;14844;51.302;6.354;2022-12-20T04:49:39;10.70;99.90
27376;DHT22;14844;51.302;6.354;2022-12-20T04:52:04;10.70;99.90
27376;DHT22;14844;51.302;6.354;2022-12-20T04:54:49;10.70;99.90
27376;DHT22;14844;51.302;6.354;2022-12-20T04:57:14;10.60;99.90
27376;DHT22;14844;51.302;6.354;2022-12-20T04:59:40;10.60;99.90
27376;DHT22;14844;51.302;6.354;2022-12-20T05:02:06;10.60;99.90
27376;DHT22;14844;51.302;6.354;2022-12-20T05:04:31;10.60;99.90
27376;DHT22;14844;51.302;6.354;2022-12-20T05:06:57;10.60;99.90
27376;DHT22;14844;51.302;6.354;2022-12-20T05:09:22;10.60;99.90
27376;DHT22;14844;51.302;6.354;2022-12-20T05:11:51;10.60;99.90
27376;DHT22;14844;51.302;6.354;2022-12-20T05:14:16;10.60;99.90
27376;DHT22;14844;51.302;6.354;2022-12-20T05:16:42;10.60;99.90
27376;DHT22;14844;51.302;6.354;2022-12-20T05:19:08;10.70;99.90
27376;DHT22;14844;51.302;6.354;2022-12-20T05:21:33;10.60;99.90
27376;DHT22;14844;51.302;6.354;2022-12-20T05:24:18;10.60;99.90
27376;DHT22;14844;51.302;6.354;2022-12-20T05:27:04;10.60;99.90
27376;DHT22;14844;51.302;6.354;2022-12-20T05:29:29;10.60;99.90
27376;DHT22;14844;51.302;6.354;2022-12-20T05:31:57;10.60;99.90
27376;DHT22;14844;51.302;6.354;2022-12-20T05:34:22;10.60;99.90
27376;DHT22;14844;51.302;6.354;2022-12-20T05:36:48;10.50;99.90
27376;DHT22;14844;51.302;6.354;2022-12-20T05:39:14;10.50;99.90
27376;DHT22;14844;51.302;6.354;2022-12-20T05:41:40;10.50;99.90
27376;DHT22;14844;51.302;6.354;2022-12-20T05:44:06;10.40;99.90
27376;DHT22;14844;51.302;6.354;2022-12-20T05:46:32;10.30;99.90
27376;DHT22;14844;51.302;6.354;2022-12-20T05:48:58;10.30;99.90
27376;DHT22;14844;51.302;6.354;2022-12-20T05:51:24;10.30;99.90
27376;DHT22;14844;51.302;6.354;2022-12-20T05:53:50;10.20;99.90
27376;DHT22;14844;51.302;6.354;2022-12-20T05:56:15;10.20;99.90
27376;DHT22;14844;51.302;6.354;2022-12-20T05:58:41;10.10;99.90
27376;DHT22;14844;51.302;6.354;2022-12-20T06:01:07;10.10;99.90
27376;DHT22;14844;51.302;6.354;2022-12-20T06:03:33;10.10;99.90
27376;DHT22;14844;51.302;6.354;2022-12-20T06:06:00;10.10;99.90
27376;DHT22;14844;51.302;6.354;2022-12-20T06:08:25;10.00;99.90
27376;DHT22;14844;51.302;6.354;2022-12-20T06:10:51;10.00;99.90
27376;DHT22;14844;51.302;6.354;2022-12-20T06:13:17;10.00;99.90
27376;DHT22;14844;51.302;6.354;2022-12-20T06:15:43;9.90;99.90
27376;DHT22;14844;51.302;6.354;2022-12-20T06:18:08;9.90;99.90
27376;DHT22;14844;51.302;6.354;2022-12-20T06:20:35;9.80;99.90
27376;DHT22;14844;51.302;6.354;2022-12-20T06:23:02;9.90;99.90
27376;DHT22;14844;51.302;6.354;2022-12-20T06:25:28;9.80;99.90
27376;DHT22;14844;51.302;6.354;2022-12-20T06:27:55;9.80;99.90
27376;DHT22;14844;51.302;6.354;2022-12-20T06:30:22;9.80;99.90
27376;DHT22;14844;51.302;6.354;2022-12-20T06:32:47;9.80;99.90
27376;DHT22;14844;51.302;6.354;2022-12-20T06:35:13;9.80;99.90
27376;DHT22;14844;51.302;6.354;2022-12-20T06:37:40;9.80;99.90
27376;DHT22;14844;51.302;6.354;2022-12-20T06:40:08;9.70;99.90
27376;DHT22;14844;51.302;6.354;2022-12-20T06:42:34;9.70;99.90
27376;DHT22;14844;51.302;6.354;2022-12-20T06:44:59;9.70;99.90
27376;DHT22;14844;51.302;6.354;2022-12-20T06:47:25;9.70;99.90
27376;DHT22;14844;51.302;6.354;2022-12-20T06:49:50;9.70;99.90
27376;DHT22;14844;51.302;6.354;2022-12-20T06:52:16;9.70;99.90
27376;DHT22;14844;51.302;6.354;2022-12-20T06:54:42;9.80;99.90
27376;DHT22;14844;51.302;6.354;2022-12-20T06:57:07;9.70;99.90
27376;DHT22;14844;51.302;6.354;2022-12-20T06:59:33;9.70;99.90
27376;DHT22;14844;51.302;6.354;2022-12-20T07:01:59;9.70;99.90
27376;DHT22;14844;51.302;6.354;2022-12-20T07:04:25;9.80;99.90
27376;DHT22;14844;51.302;6.354;2022-12-20T07:06:50;9.80;99.90
27376;DHT22;14844;51.302;6.354;2022-12-20T07:09:16;9.90;99.90
27376;DHT22;14844;51.302;6.354;2022-12-20T07:11:41;9.90;99.90
27376;DHT22;14844;51.302;6.354;2022-12-20T07:14:07;10.00;99.90
27376;DHT22;14844;51.302;6.354;2022-12-20T07:16:33;10.00;99.90
27376;DHT22;14844;51.302;6.354;2022-12-20T07:19:00;10.00;99.90
27376;DHT22;14844;51.302;6.354;2022-12-20T07:21:26;10.00;99.90
27376;DHT22;14844;51.302;6.354;2022-12-20T07:23:53;10.10;99.90
27376;DHT22;14844;51.302;6.354;2022-12-20T07:26:19;10.00;99.90
27376;DHT22;14844;51.302;6.354;2022-12-20T07:28:44;10.00;99.90
27376;DHT22;14844;51.302;6.354;2022-12-20T07:31:10;9.90;99.90
27376;DHT22;14844;51.302;6.354;2022-12-20T07:33:36;9.90;99.90
27376;DHT22;14844;51.302;6.354;2022-12-20T07:36:07;9.90;99.90
27376;DHT22;14844;51.302;6.354;2022-12-20T07:38:34;9.90;99.90
27376;DHT22;14844;51.302;6.354;2022-12-20T07:41:00;10.00;99.90
27376;DHT22;14844;51.302;6.354;2022-12-20T07:43:26;10.00;99.90
27376;DHT22;14844;51.302;6.354;2022-12-20T07:45:55;9.90;99.90
27376;DHT22;14844;51.302;6.354;2022-12-20T07:48:21;10.00;99.90
27376;DHT22;14844;51.302;6.354;2022-12-20T07:50:48;10.00;99.90
27376;DHT22;14844;51.302;6.354;2022-12-20T07:53:14;10.10;99.90
27376;DHT22;14844;51.302;6.354;2022-12-20T07:55:39;10.20;99.90
27376;DHT22;14844;51.302;6.354;2022-12-20T07:58:08;10.20;99.90
27376;DHT22;14844;51.302;6.354;2022-12-20T08:00:36;10.30;99.90
27376;DHT22;14844;51.302;6.354;2022-12-20T08:03:06;10.40;99.90
27376;DHT22;14844;51.302;6.354;2022-12-20T08:05:33;10.50;99.90
27376;DHT22;14844;51.302;6.354;2022-12-20T08:08:01;10.50;99.90
27376;DHT22;14844;51.302;6.354;2022-12-20T08:10:28;10.60;99.90
27376;DHT22;14844;51.302;6.354;2022-12-20T08:12:55;10.60;99.90
27376;DHT22;14844;51.302;6.354;2022-12-20T08:15:20;10.60;99.90
27376;DHT22;14844;51.302;6.354;2022-12-20T08:17:47;10.70;99.90
27376;DHT22;14844;51.302;6.354;2022-12-20T08:20:14;10.70;99.90
27376;DHT22;14844;51.302;6.354;2022-12-20T08:22:39;10.80;99.90
27376;DHT22;14844;51.302;6.354;2022-12-20T08:25:05;10.80;99.90
27376;DHT22;14844;51.302;6.354;2022-12-20T08:27:31;10.90;99.90
27376;DHT22;14844;51.302;6.354;2022-12-20T08:29:58;11.00;99.90
27376;DHT22;14844;51.302;6.354;2022-12-20T08:32:24;11.00;99.90
27376;DHT22;14844;51.302;6.354;2022-12-20T08:34:50;11.10;99.90
27376;DHT22;14844;51.302;6.354;2022-12-20T08:37:16;11.10;99.90
27376;DHT22;14844;51.302;6.354;2022-12-20T08:39:42;11.20;99.90
27376;DHT22;14844;51.302;6.354;2022-12-20T08:42:08;11.30;99.90
27376;DHT22;14844;51.302;6.354;2022-12-20T08:44:33;11.30;99.90
27376;DHT22;14844;51.302;6.354;2022-12-20T08:46:59;11.30;99.90
27376;DHT22;14844;51.302;6.354;2022-12-20T08:49:25;11.30;99.90
27376;DHT22;14844;51.302;6.354;2022-12-20T08:51:50;11.30;99.90
27376;DHT22;14844;51.302;6.354;2022-12-20T08:54:16;11.30;99.90
27376;DHT22;14844;51.302;6.354;2022-12-20T08:56:42;11.30;99.90
27376;DHT22;14844;51.302;6.354;2022-12-20T08:59:07;11.40;99.90
27376;DHT22;14844;51.302;6.354;2022-12-20T09:01:33;11.40;99.90
27376;DHT22;14844;51.302;6.354;2022-12-20T09:03:59;11.40;99.90
27376;DHT22;14844;51.302;6.354;2022-12-20T09:06:24;11.50;99.90
27376;DHT22;14844;51.302;6.354;2022-12-20T09:08:51;11.50;99.90
27376;DHT22;14844;51.302;6.354;2022-12-20T09:11:22;11.50;99.90
27376;DHT22;14844;51.302;6.354;2022-12-20T09:13:50;11.60;99.90
27376;DHT22;14844;51.302;6.354;2022-12-20T09:16:19;11.70;99.90
27376;DHT22;14844;51.302;6.354;2022-12-20T09:18:52;11.80;99.90
27376;DHT22;14844;51.302;6.354;2022-12-20T09:21:19;11.90;99.90
27376;DHT22;14844;51.302;6.354;2022-12-20T09:23:45;11.80;99.90
27376;DHT22;14844;51.302;6.354;2022-12-20T09:26:13;11.80;99.90
27376;DHT22;14844;51.302;6.354;2022-12-20T09:28:40;11.80;99.90
27376;DHT22;14844;51.302;6.354;2022-12-20T09:31:09;11.80;99.90
27376;DHT22;14844;51.302;6.354;2022-12-20T09:33:36;11.80;99.90
27376;DHT22;14844;51.302;6.354;2022-12-20T09:36:02;11.70;99.90
27376;DHT22;14844;51.302;6.354;2022-12-20T09:38:28;11.80;99.90
27376;DHT22;14844;51.302;6.354;2022-12-20T09:40:57;11.80;99.90
27376;DHT22;14844;51.302;6.354;2022-12-20T09:43:23;11.80;99.90
27376;DHT22;14844;51.302;6.354;2022-12-20T09:46:00;11.90;99.90
27376;DHT22;14844;51.302;6.354;2022-12-20T09:48:34;11.90;99.90
27376;DHT22;14844;51.302;6.354;2022-12-20T09:56:26;12.00;99.90
27376;DHT22;14844;51.302;6.354;2022-12-20T09:59:10;12.00;99.90
27376;DHT22;14844;51.302;6.354;2022-12-20T10:01:37;12.00;99.90
27376;DHT22;14844;51.302;6.354;2022-12-20T10:04:21;12.00;99.90
27376;DHT22;14844;51.302;6.354;2022-12-20T10:06:51;12.10;99.90
27376;DHT22;14844;51.302;6.354;2022-12-20T10:17:31;12.20;99.90
27376;DHT22;14844;51.302;6.354;2022-12-20T10:25:39;12.50;99.90
27376;DHT22;14844;51.302;6.354;2022-12-20T10:28:12;12.50;99.90
27376;DHT22;14844;51.302;6.354;2022-12-20T10:30:40;12.50;99.90
27376;DHT22;14844;51.302;6.354;2022-12-20T10:33:21;12.60;99.90
27376;DHT22;14844;51.302;6.354;2022-12-20T10:35:47;12.70;99.90
27376;DHT22;14844;51.302;6.354;2022-12-20T10:38:13;12.70;99.90
27376;DHT22;14844;51.302;6.354;2022-12-20T10:40:48;12.80;99.90
27376;DHT22;14844;51.302;6.354;2022-12-20T10:43:23;12.90;99.90
27376;DHT22;14844;51.302;6.354;2022-12-20T10:45:59;13.00;99.90
27376;DHT22;14844;51.302;6.354;2022-12-20T10:48:35;13.10;99.90
27376;DHT22;14844;51.302;6.354;2022-12-20T10:53:33;12.90;99.90
27376;DHT22;14844;51.302;6.354;2022-12-20T10:56:12;12.80;99.90
27376;DHT22;14844;51.302;6.354;2022-12-20T10:58:54;12.80;99.90
27376;DHT22;14844;51.302;6.354;2022-12-20T11:01:29;12.80;99.90
27376;DHT22;14844;51.302;6.354;2022-12-20T11:04:06;13.00;99.90
27376;DHT22;14844;51.302;6.354;2022-12-20T11:06:40;13.00;99.90
27376;DHT22;14844;51.302;6.354;2022-12-20T11:09:29;13.10;99.90
27376;DHT22;14844;51.302;6.354;2022-12-20T11:14:26;13.10;99.90
27376;DHT22;14844;51.302;6.354;2022-12-20T11:16:53;13.10;99.90
27376;DHT22;14844;51.302;6.354;2022-12-20T11:19:45;13.10;99.90
27376;DHT22;14844;51.302;6.354;2022-12-20T11:25:21;13.00;99.90
27376;DHT22;14844;51.302;6.354;2022-12-20T11:30:53;13.10;99.90
27376;DHT22;14844;51.302;6.354;2022-12-20T11:33:34;13.10;99.90
27376;DHT22;14844;51.302;6.354;2022-12-20T11:36:09;13.00;99.90
27376;DHT22;14844;51.302;6.354;2022-12-20T11:38:47;12.90;99.90
27376;DHT22;14844;51.302;6.354;2022-12-20T11:46:37;13.10;99.90
27376;DHT22;14844;51.302;6.354;2022-12-20T11:49:24;13.20;99.90
27376;DHT22;14844;51.302;6.354;2022-12-20T11:52:03;13.20;99.90
27376;DHT22;14844;51.302;6.354;2022-12-20T11:54:43;13.20;99.90
27376;DHT22;14844;51.302;6.354;2022-12-20T11:57:17;13.30;99.90
27376;DHT22;14844;51.302;6.354;2022-12-20T11:59:49;13.40;99.90
27376;DHT22;14844;51.302;6.354;2022-12-20T12:02:50;13.40;99.90
27376;DHT22;14844;51.302;6.354;2022-12-20T12:05:40;13.40;99.90
27376;DHT22;14844;51.302;6.354;2022-12-20T12:08:11;13.40;99.90
27376;DHT22;14844;51.302;6.354;2022-12-20T12:10:43;13.40;99.90
27376;DHT22;14844;51.302;6.354;2022-12-20T12:13:28;13.40;99.90
27376;DHT22;14844;51.302;6.354;2022-12-20T12:16:07;13.40;99.90
27376;DHT22;14844;51.302;6.354;2022-12-20T12:18:35;13.30;99.90
27376;DHT22;14844;51.302;6.354;2022-12-20T12:21:12;13.30;99.90
27376;DHT22;14844;51.302;6.354;2022-12-20T12:26:31;12.80;99.90
27376;DHT22;14844;51.302;6.354;2022-12-20T12:34:37;12.00;99.90
27376;DHT22;14844;51.302;6.354;2022-12-20T12:37:32;11.90;99.90
27376;DHT22;14844;51.302;6.354;2022-12-20T12:45:28;11.70;99.90
27376;DHT22;14844;51.302;6.354;2022-12-20T12:48:10;11.60;99.90
27376;DHT22;14844;51.302;6.354;2022-12-20T12:50:42;11.60;99.90
27376;DHT22;14844;51.302;6.354;2022-12-20T12:53:13;11.60;99.90
27376;DHT22;14844;51.302;6.354;2022-12-20T12:55:50;11.60;99.90
27376;DHT22;14844;51.302;6.354;2022-12-20T13:00:56;11.60;99.90
27376;DHT22;14844;51.302;6.354;2022-12-20T13:03:39;11.50;99.90
27376;DHT22;14844;51.302;6.354;2022-12-20T13:09:16;11.20;99.90
27376;DHT22;14844;51.302;6.354;2022-12-20T13:11:42;11.20;99.90
27376;DHT22;14844;51.302;6.354;2022-12-20T13:46:01;10.70;99.90
27376;DHT22;14844;51.302;6.354;2022-12-20T13:48:42;10.70;99.90
27376;DHT22;14844;51.302;6.354;2022-12-20T13:51:22;10.70;99.90
27376;DHT22;14844;51.302;6.354;2022-12-20T13:56:52;10.70;99.90
27376;DHT22;14844;51.302;6.354;2022-12-20T13:59:26;10.60;99.90
27376;DHT22;14844;51.302;6.354;2022-12-20T14:01:55;10.60;99.90
27376;DHT22;14844;51.302;6.354;2022-12-20T14:04:27;10.60;99.90
27376;DHT22;14844;51.302;6.354;2022-12-20T14:07:02;10.60;99.90
27376;DHT22;14844;51.302;6.354;2022-12-20T14:09:34;10.60;99.90
27376;DHT22;14844;51.302;6.354;2022-12-20T14:12:11;10.60;99.90
27376;DHT22;14844;51.302;6.354;2022-12-20T14:14:48;10.50;99.90
27376;DHT22;14844;51.302;6.354;2022-12-20T14:17:22;10.50;99.90
27376;DHT22;14844;51.302;6.354;2022-12-20T14:20:22;10.50;99.90
27376;DHT22;14844;51.302;6.354;2022-12-20T14:25:17;10.40;99.90
27376;DHT22;14844;51.302;6.354;2022-12-20T14:27:47;10.40;99.90
27376;DHT22;14844;51.302;6.354;2022-12-20T14:32:56;10.40;99.90
27376;DHT22;14844;51.302;6.354;2022-12-20T14:35:22;10.40;99.90
27376;DHT22;14844;51.302;6.354;2022-12-20T14:37:56;10.50;99.90
27376;DHT22;14844;51.302;6.354;2022-12-20T14:40:23;10.40;99.90
27376;DHT22;14844;51.302;6.354;2022-12-20T14:42:49;10.40;99.90
27376;DHT22;14844;51.302;6.354;2022-12-20T14:45:22;10.50;99.90
27376;DHT22;14844;51.302;6.354;2022-12-20T14:48:05;10.50;99.90
27376;DHT22;14844;51.302;6.354;2022-12-20T14:50:51;10.50;99.90
27376;DHT22;14844;51.302;6.354;2022-12-20T14:53:23;10.40;99.90
27376;DHT22;14844;51.302;6.354;2022-12-20T14:55:53;10.50;99.90
27376;DHT22;14844;51.302;6.354;2022-12-20T14:58:28;10.40;99.90
27376;DHT22;14844;51.302;6.354;2022-12-20T15:03:49;10.40;99.90
27376;DHT22;14844;51.302;6.354;2022-12-20T15:06:42;10.40;99.90
27376;DHT22;14844;51.302;6.354;2022-12-20T15:09:08;10.40;99.90
27376;DHT22;14844;51.302;6.354;2022-12-20T15:11:36;10.40;99.90
27376;DHT22;14844;51.302;6.354;2022-12-20T15:14:20;10.40;99.90
27376;DHT22;14844;51.302;6.354;2022-12-20T15:16:47;10.30;99.90
27376;DHT22;14844;51.302;6.354;2022-12-20T15:19:16;10.30;99.90
27376;DHT22;14844;51.302;6.354;2022-12-20T15:21:45;10.30;99.90
27376;DHT22;14844;51.302;6.354;2022-12-20T15:24:17;10.30;99.90
27376;DHT22;14844;51.302;6.354;2022-12-20T15:26:44;10.30;99.90
27376;DHT22;14844;51.302;6.354;2022-12-20T15:29:25;10.30;99.90
27376;DHT22;14844;51.302;6.354;2022-12-20T15:35:17;10.40;99.90
27376;DHT22;14844;51.302;6.354;2022-12-20T15:37:45;10.30;99.90
27376;DHT22;14844;51.302;6.354;2022-12-20T15:40:20;10.30;99.90
27376;DHT22;14844;51.302;6.354;2022-12-20T15:42:46;10.30;99.90
27376;DHT22;14844;51.302;6.354;2022-12-20T15:45:15;10.40;99.90
27376;DHT22;14844;51.302;6.354;2022-12-20T15:47:41;10.40;99.90
27376;DHT22;14844;51.302;6.354;2022-12-20T15:50:08;10.30;99.90
27376;DHT22;14844;51.302;6.354;2022-12-20T15:52:34;10.40;99.90
27376;DHT22;14844;51.302;6.354;2022-12-20T15:55:03;10.40;99.90
27376;DHT22;14844;51.302;6.354;2022-12-20T15:57:31;10.40;99.90
27376;DHT22;14844;51.302;6.354;2022-12-20T16:00:02;10.40;99.90
27376;DHT22;14844;51.302;6.354;2022-12-20T16:02:31;10.40;99.90
27376;DHT22;14844;51.302;6.354;2022-12-20T16:04:57;10.40;99.90
27376;DHT22;14844;51.302;6.354;2022-12-20T16:07:23;10.40;99.90
27376;DHT22;14844;51.302;6.354;2022-12-20T16:09:49;10.40;99.90
27376;DHT22;14844;51.302;6.354;2022-12-20T16:12:22;10.40;99.90
27376;DHT22;14844;51.302;6.354;2022-12-20T16:14:51;10.40;99.90
27376;DHT22;14844;51.302;6.354;2022-12-20T16:17:17;10.40;99.90
27376;DHT22;14844;51.302;6.354;2022-12-20T16:20:08;10.40;99.90
27376;DHT22;14844;51.302;6.354;2022-12-20T16:22:39;10.40;99.90
27376;DHT22;14844;51.302;6.354;2022-12-20T16:25:05;10.40;99.90
27376;DHT22;14844;51.302;6.354;2022-12-20T16:27:45;10.30;99.90
27376;DHT22;14844;51.302;6.354;2022-12-20T16:30:20;10.40;99.90
27376;DHT22;14844;51.302;6.354;2022-12-20T16:32:50;10.30;99.90
27376;DHT22;14844;51.302;6.354;2022-12-20T16:35:26;10.40;99.90
27376;DHT22;14844;51.302;6.354;2022-12-20T16:37:56;10.30;99.90
27376;DHT22;14844;51.302;6.354;2022-12-20T16:40:30;10.30;99.90
27376;DHT22;14844;51.302;6.354;2022-12-20T16:42:57;10.30;99.90
27376;DHT22;14844;51.302;6.354;2022-12-20T16:45:27;10.30;99.90
27376;DHT22;14844;51.302;6.354;2022-12-20T16:47:53;10.30;99.90
27376;DHT22;14844;51.302;6.354;2022-12-20T16:50:23;10.30;99.90
27376;DHT22;14844;51.302;6.354;2022-12-20T16:52:57;10.30;99.90
27376;DHT22;14844;51.302;6.354;2022-12-20T16:55:29;10.30;99.90
27376;DHT22;14844;51.302;6.354;2022-12-20T16:58:11;10.30;99.90
27376;DHT22;14844;51.302;6.354;2022-12-20T17:01:30;10.30;99.90
27376;DHT22;14844;51.302;6.354;2022-12-20T17:03:59;10.30;99.90
27376;DHT22;14844;51.302;6.354;2022-12-20T17:06:25;10.30;99.90
27376;DHT22;14844;51.302;6.354;2022-12-20T17:08:53;10.40;99.90
27376;DHT22;14844;51.302;6.354;2022-12-20T17:14:34;10.40;99.90
27376;DHT22;14844;51.302;6.354;2022-12-20T17:16:59;10.40;99.90
27376;DHT22;14844;51.302;6.354;2022-12-20T17:19:25;10.40;99.90
27376;DHT22;14844;51.302;6.354;2022-12-20T17:21:50;10.40;99.90
27376;DHT22;14844;51.302;6.354;2022-12-20T17:24:18;10.40;99.90
27376;DHT22;14844;51.302;6.354;2022-12-20T17:26:47;10.40;99.90
27376;DHT22;14844;51.302;6.354;2022-12-20T17:29:13;10.40;99.90
27376;DHT22;14844;51.302;6.354;2022-12-20T17:31:41;10.40;99.90
27376;DHT22;14844;51.302;6.354;2022-12-20T17:34:25;10.40;99.90
27376;DHT22;14844;51.302;6.354;2022-12-20T17:36:53;10.40;99.90
27376;DHT22;14844;51.302;6.354;2022-12-20T17:39:21;10.40;99.90
27376;DHT22;14844;51.302;6.354;2022-12-20T17:41:47;10.40;99.90
27376;DHT22;14844;51.302;6.354;2022-12-20T17:44:25;10.40;99.90
27376;DHT22;14844;51.302;6.354;2022-12-20T17:46:51;10.40;99.90
27376;DHT22;14844;51.302;6.354;2022-12-20T17:49:17;10.40;99.90